createdAt,value
2018-12-17T00:00:29.487Z,25.17
2018-12-17T00:02:57.102Z,24.87
2018-12-17T00:05:24.765Z,24.60
2018-12-17T00:07:52.316Z,25.80
2018-12-17T00:10:19.843Z,24.95
2018-12-17T00:12:47.354Z,24.35
2018-12-17T00:15:14.893Z,25.32
2018-12-17T00:17:42.471Z,24.18
2018-12-17T00:20:10.555Z,24.55
2018-12-17T00:22:38.197Z,25.50
2018-12-17T00:25:06.594Z,23.40
2018-12-17T00:27:34.107Z,24.25
2018-12-17T00:30:01.614Z,23.85
2018-12-17T00:32:29.257Z,23.22
2018-12-17T00:34:56.775Z,23.85
2018-12-17T00:37:24.307Z,25.23
2018-12-17T00:39:51.826Z,22.60
2018-12-17T00:42:19.347Z,21.93
2018-12-17T00:44:46.829Z,24.95
2018-12-17T00:47:14.371Z,22.95
2018-12-17T00:49:41.863Z,22.80
2018-12-17T00:52:09.398Z,22.42
2018-12-17T00:54:36.956Z,20.05
2018-12-17T00:57:04.561Z,21.68
2018-12-17T00:59:32.055Z,20.50
2018-12-17T01:01:59.578Z,22.10
2018-12-17T01:04:27.054Z,19.75
2018-12-17T01:06:54.661Z,20.65
2018-12-17T01:09:22.136Z,21.20
2018-12-17T01:11:49.893Z,21.02
2018-12-17T01:14:17.457Z,20.45
2018-12-17T01:16:44.952Z,20.08
2018-12-17T01:19:12.492Z,20.90
2018-12-17T01:21:40.112Z,20.90
2018-12-17T01:24:07.603Z,21.60
2018-12-17T01:26:35.151Z,20.72
2018-12-17T01:29:02.660Z,19.95
2018-12-17T01:31:30.192Z,19.23
2018-12-17T01:33:57.739Z,20.75
2018-12-17T01:36:25.276Z,19.40
2018-12-17T01:38:52.769Z,20.90
2018-12-17T01:41:20.276Z,18.40
2018-12-17T01:43:47.781Z,20.72
2018-12-17T01:46:15.261Z,19.05
2018-12-17T01:48:42.798Z,19.87
2018-12-17T01:51:10.400Z,17.67
2018-12-17T01:53:37.925Z,18.80
2018-12-17T01:56:05.425Z,20.82
2018-12-17T01:58:32.959Z,18.75
2018-12-17T02:01:00.588Z,19.20
2018-12-17T02:03:28.113Z,17.90
2018-12-17T02:05:55.630Z,19.75
2018-12-17T02:08:24.133Z,19.42
2018-12-17T02:10:51.702Z,19.45
2018-12-17T02:13:19.215Z,19.42
2018-12-17T02:15:46.783Z,19.35
2018-12-17T02:18:14.284Z,19.45
2018-12-17T02:20:41.787Z,20.35
2018-12-17T02:23:09.354Z,18.25
2018-12-17T02:25:36.835Z,17.35
2018-12-17T02:28:04.549Z,18.02
2018-12-17T02:30:32.043Z,19.52
2018-12-17T02:32:59.552Z,18.30
2018-12-17T02:35:27.116Z,19.42
2018-12-17T02:37:54.595Z,21.17
2018-12-17T02:40:22.069Z,17.82
2018-12-17T02:42:49.628Z,18.87
2018-12-17T02:45:17.101Z,19.45
2018-12-17T02:47:44.634Z,19.17
2018-12-17T02:50:12.130Z,20.70
2018-12-17T02:52:39.605Z,18.52
2018-12-17T02:55:07.329Z,18.95
2018-12-17T02:57:34.919Z,18.57
2018-12-17T03:00:02.528Z,18.23
2018-12-17T03:02:30.039Z,17.12
2018-12-17T03:04:57.598Z,17.70
2018-12-17T03:07:25.140Z,15.88
2018-12-17T03:09:52.626Z,16.45
2018-12-17T03:12:20.220Z,16.67
2018-12-17T03:14:47.707Z,16.77
2018-12-17T03:17:15.274Z,16.50
2018-12-17T03:19:42.739Z,14.53
2018-12-17T03:22:10.256Z,16.37
2018-12-17T03:24:37.764Z,17.12
2018-12-17T03:27:05.271Z,15.72
2018-12-17T03:29:32.819Z,15.88
2018-12-17T03:32:00.311Z,17.90
2018-12-17T03:34:27.854Z,16.85
2018-12-17T03:36:55.413Z,15.70
2018-12-17T03:39:22.999Z,16.87
2018-12-17T03:41:50.661Z,16.17
2018-12-17T03:44:18.183Z,16.95
2018-12-17T03:46:45.691Z,16.85
2018-12-17T03:49:13.199Z,16.23
2018-12-17T03:51:40.683Z,14.63
2018-12-17T03:54:08.213Z,13.43
2018-12-17T03:56:35.702Z,14.68
2018-12-17T03:59:03.235Z,15.13
2018-12-17T04:01:30.789Z,14.33
2018-12-17T04:03:58.317Z,13.78
2018-12-17T04:06:25.826Z,13.58
2018-12-17T04:08:53.433Z,12.85
2018-12-17T04:11:21.612Z,14.73
2018-12-17T04:13:49.102Z,12.73
2018-12-17T04:16:16.619Z,13.18
2018-12-17T04:18:44.154Z,14.80
2018-12-17T04:21:11.691Z,14.15
2018-12-17T04:23:39.160Z,14.13
2018-12-17T04:26:06.695Z,15.32
2018-12-17T04:28:34.233Z,15.83
2018-12-17T04:31:01.743Z,16.52
2018-12-17T04:33:29.226Z,13.75
2018-12-17T04:35:56.731Z,18.77
2018-12-17T04:38:24.201Z,20.30
2018-12-17T04:40:51.733Z,20.85
2018-12-17T04:43:19.474Z,21.35
2018-12-17T04:45:46.998Z,21.48
2018-12-17T04:48:14.492Z,21.02
2018-12-17T04:50:41.975Z,21.97
2018-12-17T04:53:09.486Z,24.10
2018-12-17T04:55:37.011Z,23.47
2018-12-17T04:58:05.287Z,21.70
2018-12-17T05:00:32.817Z,21.93
2018-12-17T05:03:00.358Z,23.22
2018-12-17T05:05:27.843Z,19.70
2018-12-17T05:07:55.315Z,18.20
2018-12-17T05:10:22.846Z,18.85
2018-12-17T05:12:50.404Z,18.30
2018-12-17T05:15:17.931Z,15.30
2018-12-17T05:17:45.487Z,18.42
2018-12-17T05:20:13.029Z,18.07
2018-12-17T05:22:40.581Z,15.65
2018-12-17T05:25:08.281Z,14.90
2018-12-17T05:27:35.771Z,14.35
2018-12-17T05:30:04.707Z,14.28
2018-12-17T05:32:32.247Z,14.75
2018-12-17T05:34:59.731Z,14.87
2018-12-17T05:37:27.245Z,14.28
2018-12-17T05:39:54.733Z,14.70
2018-12-17T05:42:22.261Z,13.70
2018-12-17T05:44:49.732Z,14.13
2018-12-17T05:47:17.238Z,13.98
2018-12-17T05:49:44.767Z,13.38
2018-12-17T05:52:12.278Z,13.85
2018-12-17T05:54:39.887Z,13.08
2018-12-17T05:57:07.492Z,11.60
2018-12-17T05:59:34.990Z,12.95
2018-12-17T06:02:02.528Z,13.32
2018-12-17T06:04:30.059Z,14.53
2018-12-17T06:06:57.572Z,16.97
2018-12-17T06:09:25.377Z,15.10
2018-12-17T06:11:52.959Z,12.43
2018-12-17T06:14:20.474Z,13.13
2018-12-17T06:16:47.980Z,13.18
2018-12-17T06:19:15.483Z,16.00
2018-12-17T06:21:42.999Z,14.25
2018-12-17T06:24:10.485Z,13.58
2018-12-17T06:26:37.995Z,12.45
2018-12-17T06:29:05.500Z,12.82
2018-12-17T06:31:33.013Z,14.28
2018-12-17T06:34:01.301Z,14.15
2018-12-17T06:36:28.903Z,14.68
2018-12-17T06:38:56.422Z,14.23
2018-12-17T06:41:23.901Z,13.62
2018-12-17T06:43:51.443Z,15.13
2018-12-17T06:46:19.085Z,13.80
2018-12-17T06:48:46.743Z,14.85
2018-12-17T06:51:14.276Z,17.48
2018-12-17T06:53:41.813Z,19.73
2018-12-17T06:56:09.358Z,17.77
2018-12-17T06:58:36.835Z,16.70
2018-12-17T07:01:04.415Z,15.10
2018-12-17T07:03:31.945Z,17.35
2018-12-17T07:05:59.468Z,18.37
2018-12-17T07:08:26.956Z,17.12
2018-12-17T07:10:54.483Z,16.02
2018-12-17T07:13:22.010Z,17.57
2018-12-17T07:18:23.635Z,18.57
2018-12-17T07:20:51.207Z,18.32
2018-12-17T07:23:18.690Z,17.42
2018-12-17T07:25:46.251Z,16.77
2018-12-17T07:28:13.724Z,16.00
2018-12-17T07:30:41.232Z,17.17
2018-12-17T07:33:08.767Z,19.55
2018-12-17T07:35:36.247Z,20.95
2018-12-17T07:38:03.775Z,21.90
2018-12-17T07:40:31.288Z,23.32
2018-12-17T07:42:58.804Z,21.27
2018-12-17T07:45:26.278Z,20.85
2018-12-17T07:47:53.820Z,21.10
2018-12-17T07:50:21.300Z,20.55
2018-12-17T07:52:48.811Z,21.05
2018-12-17T07:55:16.333Z,19.20
2018-12-17T07:57:43.903Z,19.45
2018-12-17T08:00:11.887Z,20.08
2018-12-17T08:02:39.417Z,25.12
2018-12-17T08:05:07.298Z,21.82
2018-12-17T08:07:34.831Z,22.55
2018-12-17T08:10:02.440Z,20.95
2018-12-17T08:12:29.938Z,21.35
2018-12-17T08:14:57.500Z,23.87
2018-12-17T08:17:25.021Z,21.07
2018-12-17T08:19:52.572Z,20.30
2018-12-17T08:22:20.126Z,20.77
2018-12-17T08:24:47.654Z,19.27
2018-12-17T08:27:15.121Z,20.30
2018-12-17T08:29:42.588Z,18.90
2018-12-17T08:32:10.111Z,19.30
2018-12-17T08:34:37.743Z,16.90
2018-12-17T08:37:05.231Z,19.12
2018-12-17T08:39:32.761Z,18.77
2018-12-17T08:42:00.232Z,18.32
2018-12-17T08:44:27.767Z,19.95
2018-12-17T08:46:55.270Z,19.57
2018-12-17T08:49:22.757Z,19.75
2018-12-17T08:51:50.279Z,18.90
2018-12-17T08:54:17.847Z,18.00
2018-12-17T08:56:45.371Z,17.65
2018-12-17T08:59:12.897Z,18.40
2018-12-17T09:01:40.373Z,17.85
2018-12-17T09:04:07.859Z,16.52
2018-12-17T09:06:35.400Z,16.57
2018-12-17T09:09:03.847Z,15.72
2018-12-17T09:11:31.356Z,16.10
2018-12-17T09:13:58.976Z,15.20
2018-12-17T09:16:26.552Z,15.63
2018-12-17T09:18:54.043Z,16.82
2018-12-17T09:21:21.579Z,15.80
2018-12-17T09:23:49.061Z,16.50
2018-12-17T09:26:16.569Z,15.43
2018-12-17T09:28:44.133Z,16.23
2018-12-17T09:31:11.670Z,14.83
2018-12-17T09:33:39.195Z,15.70
2018-12-17T09:36:07.058Z,16.40
2018-12-17T09:38:34.567Z,17.50
2018-12-17T09:41:02.121Z,16.35
2018-12-17T09:43:29.603Z,15.35
2018-12-17T09:45:57.127Z,17.50
2018-12-17T09:48:24.611Z,19.50
2018-12-17T09:50:52.211Z,18.80
2018-12-17T09:53:19.740Z,19.95
2018-12-17T09:55:47.218Z,18.00
2018-12-17T09:58:14.732Z,20.52
2018-12-17T10:00:42.206Z,18.42
2018-12-17T10:03:09.675Z,17.30
2018-12-17T10:05:37.229Z,19.17
2018-12-17T10:08:04.773Z,19.80
2018-12-17T10:10:32.257Z,19.45
2018-12-17T10:12:59.774Z,19.07
2018-12-17T10:15:27.264Z,17.32
2018-12-17T10:17:54.748Z,17.80
2018-12-17T10:20:22.284Z,17.30
2018-12-17T10:22:49.817Z,18.35
2018-12-17T10:25:17.367Z,19.77
2018-12-17T10:27:44.834Z,18.48
2018-12-17T10:30:12.421Z,18.37
2018-12-17T10:32:40.366Z,18.85
2018-12-17T10:35:08.113Z,17.52
2018-12-17T10:37:35.622Z,19.10
2018-12-17T10:40:04.914Z,18.70
2018-12-17T10:42:32.411Z,18.35
2018-12-17T10:44:59.986Z,18.90
2018-12-17T10:47:28.544Z,15.72
2018-12-17T10:49:56.012Z,16.75
2018-12-17T10:52:23.557Z,15.90
2018-12-17T10:54:51.037Z,16.65
2018-12-17T10:57:18.638Z,17.10
2018-12-17T10:59:46.124Z,16.05
2018-12-17T11:02:15.604Z,15.28
2018-12-17T11:04:45.120Z,17.05
2018-12-17T11:07:12.655Z,18.85
2018-12-17T11:09:40.169Z,19.00
2018-12-17T11:12:07.773Z,17.35
2018-12-17T11:14:35.341Z,18.87
2018-12-17T11:17:02.820Z,21.80
2018-12-17T11:19:30.332Z,17.17
2018-12-17T11:21:57.849Z,16.67
2018-12-17T11:24:25.423Z,16.93
2018-12-17T11:26:52.934Z,19.27
2018-12-17T11:29:20.584Z,17.70
2018-12-17T11:31:48.120Z,20.37
2018-12-17T11:34:15.603Z,17.17
2018-12-17T11:36:43.175Z,17.00
2018-12-17T11:39:10.660Z,18.17
2018-12-17T11:41:38.159Z,17.42
2018-12-17T11:44:05.722Z,16.87
2018-12-17T11:46:33.275Z,19.32
2018-12-17T11:49:00.801Z,17.35
2018-12-17T11:51:28.387Z,18.35
2018-12-17T11:53:55.888Z,16.45
2018-12-17T11:56:27.367Z,16.77
2018-12-17T11:58:54.893Z,14.80
2018-12-17T12:01:22.372Z,21.90
2018-12-17T12:03:49.957Z,18.30
2018-12-17T12:06:17.451Z,16.45
2018-12-17T12:08:44.986Z,19.65
2018-12-17T12:11:12.477Z,17.12
2018-12-17T12:13:40.067Z,16.82
2018-12-17T12:16:07.581Z,16.70
2018-12-17T12:18:35.109Z,17.95
2018-12-17T12:21:02.575Z,16.75
2018-12-17T12:23:30.103Z,17.67
2018-12-17T12:25:57.627Z,17.00
2018-12-17T12:28:25.212Z,19.70
2018-12-17T12:30:52.802Z,17.35
2018-12-17T12:33:20.297Z,16.40
2018-12-17T12:35:47.871Z,17.40
2018-12-17T12:38:15.415Z,17.12
2018-12-17T12:40:42.930Z,17.35
2018-12-17T12:43:10.459Z,18.17
2018-12-17T12:45:38.062Z,17.35
2018-12-17T12:48:05.615Z,16.57
2018-12-17T12:50:33.121Z,18.32
2018-12-17T12:53:00.650Z,16.17
2018-12-17T12:55:34.145Z,20.92
2018-12-17T12:58:03.807Z,18.80
2018-12-17T13:00:31.246Z,18.20
2018-12-17T13:02:58.768Z,18.15
2018-12-17T13:05:26.294Z,19.07
2018-12-17T13:07:53.801Z,18.25
2018-12-17T13:10:21.312Z,19.20
2018-12-17T13:12:48.797Z,19.73
2018-12-17T13:15:16.320Z,18.98
2018-12-17T13:17:43.813Z,19.57
2018-12-17T13:20:12.167Z,17.92
2018-12-17T13:22:40.739Z,19.57
2018-12-17T13:25:11.122Z,19.73
2018-12-17T13:27:38.802Z,17.35
2018-12-17T13:30:08.564Z,17.75
2018-12-17T13:32:36.987Z,17.20
2018-12-17T13:35:05.244Z,18.73
2018-12-17T13:37:32.826Z,18.50
2018-12-17T13:40:00.326Z,18.02
2018-12-17T13:42:27.836Z,18.15
2018-12-17T13:44:55.474Z,20.08
2018-12-17T13:47:22.998Z,19.90
2018-12-17T13:49:50.522Z,18.85
2018-12-17T13:52:23.780Z,18.23
2018-12-17T13:54:51.326Z,18.10
2018-12-17T13:57:18.831Z,18.95
2018-12-17T13:59:46.339Z,18.57
2018-12-17T14:02:13.932Z,18.70
2018-12-17T14:04:41.455Z,19.42
2018-12-17T14:07:09.142Z,19.75
2018-12-17T14:09:38.630Z,20.08
2018-12-17T14:12:06.158Z,18.30
2018-12-17T14:14:33.689Z,17.95
2018-12-17T14:17:06.943Z,17.70
2018-12-17T14:19:35.698Z,17.65
2018-12-17T14:22:05.157Z,16.80
2018-12-17T14:24:32.663Z,17.30
2018-12-17T14:27:02.006Z,17.73
2018-12-17T14:29:30.225Z,17.35
2018-12-17T14:31:57.899Z,17.80
2018-12-17T14:34:26.295Z,17.15
2018-12-17T14:36:53.945Z,15.78
2018-12-17T14:39:21.527Z,16.90
2018-12-17T14:41:50.130Z,16.93
2018-12-17T14:44:23.476Z,16.85
2018-12-17T14:46:57.195Z,17.45
2018-12-17T14:49:24.771Z,17.23
2018-12-17T14:51:52.307Z,15.35
2018-12-17T14:54:20.825Z,17.80
2018-12-17T14:56:48.591Z,16.65
2018-12-17T14:59:16.170Z,17.48
2018-12-17T15:01:43.706Z,16.37
2018-12-17T15:04:11.280Z,18.27
2018-12-17T15:06:38.887Z,18.80
2018-12-17T15:09:06.732Z,17.23
2018-12-17T15:11:34.395Z,16.55
2018-12-17T15:14:01.943Z,18.55
2018-12-17T15:16:29.481Z,17.92
2018-12-17T15:19:05.611Z,18.00
2018-12-17T15:21:33.203Z,17.23
2018-12-17T15:24:00.800Z,15.53
2018-12-17T15:26:28.476Z,15.15
2018-12-17T15:28:56.030Z,14.58
2018-12-17T15:31:23.738Z,15.70
2018-12-17T15:33:51.363Z,15.20
2018-12-17T15:36:18.911Z,15.45
2018-12-17T15:38:46.398Z,14.45
2018-12-17T15:41:13.916Z,14.07
2018-12-17T15:43:41.417Z,15.35
2018-12-17T15:46:08.942Z,15.45
2018-12-17T15:48:36.429Z,14.98
2018-12-17T15:51:03.946Z,16.00
2018-12-17T15:53:31.494Z,15.32
2018-12-17T15:55:58.964Z,14.50
2018-12-17T15:58:27.474Z,14.58
2018-12-17T16:00:55.000Z,16.07
2018-12-17T16:03:22.562Z,13.30
2018-12-17T16:05:50.084Z,14.35
2018-12-17T16:08:17.617Z,15.68
2018-12-17T16:10:45.084Z,15.18
2018-12-17T16:13:12.631Z,16.45
2018-12-17T16:15:40.166Z,15.08
2018-12-17T16:18:07.694Z,14.73
2018-12-17T16:20:35.194Z,15.50
2018-12-17T16:23:04.745Z,15.00
2018-12-17T16:25:32.455Z,15.15
2018-12-17T16:27:59.979Z,14.28
2018-12-17T16:30:27.604Z,14.35
2018-12-17T16:32:55.107Z,13.88
2018-12-17T16:35:22.659Z,14.93
2018-12-17T16:37:50.214Z,15.50
2018-12-17T16:40:17.749Z,13.70
2018-12-17T16:42:45.222Z,14.85
2018-12-17T16:45:13.086Z,14.68
2018-12-17T16:47:40.669Z,14.25
2018-12-17T16:50:09.044Z,17.85
2018-12-17T16:52:36.625Z,17.27
2018-12-17T16:55:04.620Z,16.85
2018-12-17T16:57:32.139Z,17.40
2018-12-17T16:59:59.608Z,15.70
2018-12-17T17:02:27.097Z,16.95
2018-12-17T17:04:54.592Z,14.90
2018-12-17T17:07:22.134Z,14.45
2018-12-17T17:09:49.611Z,15.10
2018-12-17T17:12:17.106Z,15.72
2018-12-17T17:14:44.650Z,15.58
2018-12-17T17:17:12.275Z,14.53
2018-12-17T17:19:39.856Z,15.05
2018-12-17T17:22:07.527Z,16.93
2018-12-17T17:24:35.079Z,17.27
2018-12-17T17:27:02.639Z,14.75
2018-12-17T17:29:35.152Z,14.75
2018-12-17T17:32:02.746Z,15.95
2018-12-17T17:34:30.241Z,16.25
2018-12-17T17:36:57.953Z,16.23
2018-12-17T17:39:25.452Z,15.30
2018-12-17T17:41:58.952Z,16.35
2018-12-17T17:44:26.546Z,14.75
2018-12-17T17:46:54.057Z,14.50
2018-12-17T17:49:23.626Z,14.50
2018-12-17T17:51:51.166Z,17.10
2018-12-17T17:54:19.053Z,16.73
2018-12-17T17:56:46.572Z,16.02
2018-12-17T17:59:14.076Z,17.67
2018-12-17T18:01:43.173Z,16.40
2018-12-17T18:04:10.873Z,15.65
2018-12-17T18:06:38.413Z,16.35
2018-12-17T18:09:07.620Z,20.60
2018-12-17T18:11:35.259Z,15.63
2018-12-17T18:14:02.769Z,14.40
2018-12-17T18:16:30.275Z,14.18
2018-12-17T18:18:57.876Z,16.45
2018-12-17T18:21:25.479Z,17.77
2018-12-17T18:23:54.789Z,17.30
2018-12-17T18:26:22.352Z,18.85
2018-12-17T18:28:49.963Z,18.27
2018-12-17T18:31:17.494Z,15.60
2018-12-17T18:33:44.968Z,14.33
2018-12-17T18:36:12.497Z,14.87
2018-12-17T18:38:40.014Z,12.78
2018-12-17T18:41:07.544Z,13.40
2018-12-17T18:43:35.052Z,13.68
2018-12-17T18:46:02.524Z,13.68
2018-12-17T18:48:30.094Z,13.83
2018-12-17T18:50:57.628Z,14.85
2018-12-17T18:53:25.236Z,13.53
2018-12-17T18:55:52.715Z,13.35
2018-12-17T18:58:20.231Z,13.28
2018-12-17T19:00:47.739Z,14.75
2018-12-17T19:03:15.232Z,14.68
2018-12-17T19:05:42.782Z,15.88
2018-12-17T19:08:10.403Z,14.55
2018-12-17T19:10:43.538Z,14.60
2018-12-17T19:13:11.183Z,14.33
2018-12-17T19:15:38.884Z,12.55
2018-12-17T19:18:06.518Z,12.95
2018-12-17T19:20:34.104Z,13.95
2018-12-17T19:23:01.807Z,13.08
2018-12-17T19:25:29.500Z,13.40
2018-12-17T19:27:57.140Z,14.07
2018-12-17T19:30:24.802Z,13.28
2018-12-17T19:32:52.308Z,12.85
2018-12-17T19:35:19.845Z,13.38
2018-12-17T19:37:47.498Z,12.73
2018-12-17T19:40:15.147Z,12.50
2018-12-17T19:42:42.786Z,15.18
2018-12-17T19:45:10.276Z,12.20
2018-12-17T19:47:37.832Z,13.65
2018-12-17T19:50:06.515Z,13.65
2018-12-17T19:52:34.140Z,13.70
2018-12-17T19:55:01.637Z,15.20
2018-12-17T19:57:29.190Z,14.35
2018-12-17T19:59:56.845Z,13.05
2018-12-17T20:02:24.540Z,12.70
2018-12-17T20:04:52.244Z,11.33
2018-12-17T20:07:19.982Z,14.98
2018-12-17T20:12:21.527Z,12.98
2018-12-17T20:14:49.062Z,12.35
2018-12-17T20:17:16.645Z,13.08
2018-12-17T20:19:44.149Z,13.05
2018-12-17T20:22:11.871Z,14.83
2018-12-17T20:24:39.469Z,14.45
2018-12-17T20:27:07.297Z,14.83
2018-12-17T20:29:34.853Z,16.00
2018-12-17T20:32:02.369Z,14.85
2018-12-17T20:34:29.862Z,17.62
2018-12-17T20:36:57.421Z,14.35
2018-12-17T20:39:24.896Z,14.63
2018-12-17T20:41:52.465Z,15.53
2018-12-17T20:44:19.976Z,16.95
2018-12-17T20:46:47.501Z,16.32
2018-12-17T20:49:15.008Z,13.75
2018-12-17T20:51:42.577Z,13.93
2018-12-17T20:54:10.093Z,15.50
2018-12-17T20:56:37.595Z,17.35
2018-12-17T20:59:10.675Z,15.75
2018-12-17T21:01:38.175Z,14.73
2018-12-17T21:04:05.728Z,15.25
2018-12-17T21:06:33.236Z,17.15
2018-12-17T21:09:00.800Z,17.62
2018-12-17T21:11:28.382Z,17.65
2018-12-17T21:13:55.937Z,17.55
2018-12-17T21:16:23.494Z,15.48
2018-12-17T21:18:50.987Z,17.20
2018-12-17T21:21:18.550Z,18.30
2018-12-17T21:23:46.041Z,17.45
2018-12-17T21:26:13.577Z,15.60
2018-12-17T21:28:41.196Z,13.15
2018-12-17T21:31:08.695Z,13.18
2018-12-17T21:33:36.278Z,12.35
2018-12-17T21:36:05.353Z,12.55
2018-12-17T21:38:34.180Z,11.68
2018-12-17T21:44:37.130Z,12.90
2018-12-17T21:47:04.745Z,14.20
2018-12-17T21:49:32.504Z,12.88
2018-12-17T21:52:00.223Z,12.05
2018-12-17T21:54:27.773Z,13.72
2018-12-17T21:56:55.312Z,14.78
2018-12-17T21:59:22.813Z,12.30
2018-12-17T22:01:50.431Z,11.20
2018-12-17T22:04:18.036Z,11.30
2018-12-17T22:06:45.923Z,10.53
2018-12-17T22:09:13.408Z,12.07
2018-12-17T22:11:40.977Z,10.68
2018-12-17T22:14:08.644Z,11.65
2018-12-17T22:16:36.354Z,10.70
2018-12-17T22:19:04.080Z,9.93
2018-12-17T22:21:32.630Z,11.53
2018-12-17T22:24:00.134Z,10.85
2018-12-17T22:26:29.334Z,14.20
2018-12-17T22:28:57.113Z,12.63
2018-12-17T22:31:24.606Z,10.85
2018-12-17T22:33:52.111Z,11.90
2018-12-17T22:36:19.706Z,11.30
2018-12-17T22:38:47.254Z,11.70
2018-12-17T22:41:15.857Z,11.30
2018-12-17T22:43:43.390Z,11.57
2018-12-17T22:46:10.940Z,11.85
2018-12-17T22:48:38.517Z,12.23
2018-12-17T22:51:06.002Z,11.18
2018-12-17T22:53:33.619Z,11.08
2018-12-17T22:56:01.183Z,11.60
2018-12-17T22:58:28.737Z,10.50
2018-12-17T23:00:56.450Z,12.55
2018-12-17T23:03:26.468Z,10.20
2018-12-17T23:05:54.744Z,14.75
2018-12-17T23:08:22.329Z,13.72
2018-12-17T23:11:01.859Z,12.30
2018-12-17T23:13:41.382Z,11.03
2018-12-17T23:16:20.796Z,9.80
2018-12-17T23:18:48.160Z,10.93
2018-12-17T23:21:17.760Z,11.00
2018-12-17T23:23:45.371Z,9.55
2018-12-17T23:26:12.907Z,9.43
2018-12-17T23:28:40.438Z,9.23
2018-12-17T23:31:08.784Z,8.75
2018-12-17T23:33:36.420Z,8.38
2018-12-17T23:36:04.421Z,8.68
2018-12-17T23:38:31.941Z,7.70
2018-12-17T23:40:59.512Z,7.83
2018-12-17T23:43:27.000Z,7.42
2018-12-17T23:45:54.641Z,9.13
2018-12-17T23:48:22.135Z,7.60
2018-12-17T23:50:49.700Z,7.50
2018-12-17T23:53:17.219Z,7.03
2018-12-17T23:55:44.708Z,7.85
2018-12-17T23:58:12.222Z,7.35
